Terminal Aerodrome Forecast
Issued by NWS Sterling, VA

Home | Current Version | Previous Version | Text Only | Print | Product List | Glossary On
Versions: 1 2 3 4 5 6 7 8 9 10 11 12 13 14 15 16 17 18 19 20 21 22
000
FTUS41 KLWX 191400 AAA
TAFDCA
TAF AMD
KDCA 191459Z 1915/2012 08006KT P6SM BKN090
     FM191800 10006KT P6SM BKN050
     FM192100 13007KT P6SM BKN050
     FM200600 VRB03KT P6SM BKN050
     FM200900 00000KT P6SM BKN025=

USA.gov is the U.S. government's official web portal to all federal, state and local government web resources and services.